Time;durP1;ratioP1;P1;durP2;ratioP2;P2;SDS_P1;SDS_P2;PMS_P1;PMS_P2;Temp;Humidity;BMP_temperature;BMP_pressure;BME280_temperature;BME280_humidity;BME280_pressure;Samples;Min_cycle;Max_cycle;Signal;HPM_P1;HPM_P2
2024/01/29 00:02:01;;;;;;;16.10;9.48;;;;;;;10.80;54.15;102486.91;5069542;28;20038;-47
2024/01/29 00:04:27;;;;;;;17.13;9.65;;;;;;;10.82;54.57;102494.81;5070712;28;20036;-47
2024/01/29 00:06:52;;;;;;;16.88;9.40;;;;;;;10.69;55.06;102490.84;5073854;28;20033;-47
2024/01/29 00:09:18;;;;;;;17.60;9.65;;;;;;;10.70;54.99;102489.13;5073123;28;20029;-46
2024/01/29 00:11:43;;;;;;;17.95;9.32;;;;;;;10.79;54.66;102492.09;5069004;28;20087;-47
2024/01/29 00:14:09;;;;;;;19.45;9.57;;;;;;;10.80;54.44;102486.03;5071741;28;20040;-48
2024/01/29 00:16:34;;;;;;;18.40;9.55;;;;;;;10.82;54.40;102485.25;5070359;28;20039;-45
2024/01/29 00:19:00;;;;;;;17.15;9.85;;;;;;;10.72;54.60;102480.53;5069726;28;20033;-45
2024/01/29 00:21:26;;;;;;;15.95;9.32;;;;;;;10.70;54.93;102474.38;5069823;28;20118;-48
2024/01/29 00:23:51;;;;;;;18.42;8.98;;;;;;;10.49;55.57;102482.22;5070917;28;20036;-45
2024/01/29 00:26:16;;;;;;;17.50;9.85;;;;;;;10.53;55.37;102483.25;5070895;28;20056;-44
2024/01/29 00:28:42;;;;;;;17.90;9.90;;;;;;;10.64;55.47;102496.72;5074556;28;20123;-44
2024/01/29 00:31:07;;;;;;;17.10;9.65;;;;;;;10.63;55.38;102493.22;5075489;28;20033;-44
2024/01/29 00:33:32;;;;;;;17.42;9.32;;;;;;;10.65;55.30;102494.16;5074865;28;20044;-45
2024/01/29 00:35:58;;;;;;;17.00;9.95;;;;;;;10.54;55.60;102498.09;5072941;28;20425;-48
2024/01/29 00:38:23;;;;;;;15.77;9.30;;;;;;;10.56;55.66;102494.69;5071737;28;20588;-45
2024/01/29 00:40:49;;;;;;;19.15;9.98;;;;;;;10.38;56.41;102491.34;5073367;28;20028;-45
2024/01/29 00:43:14;;;;;;;17.30;9.85;;;;;;;10.27;57.14;102499.59;5072443;28;20507;-51
2024/01/29 00:45:40;;;;;;;17.33;9.82;;;;;;;10.33;56.88;102503.31;5073567;28;20047;-46
2024/01/29 00:48:05;;;;;;;19.05;9.95;;;;;;;10.38;56.56;102500.91;5070712;28;20186;-45
2024/01/29 00:50:30;;;;;;;20.38;9.98;;;;;;;10.46;56.52;102503.00;5073433;28;20036;-46
2024/01/29 00:52:56;;;;;;;19.73;10.13;;;;;;;10.39;56.55;102506.19;5072684;28;20086;-45
2024/01/29 00:55:21;;;;;;;17.75;9.45;;;;;;;10.42;56.52;102501.09;5073135;28;20094;-47
2024/01/29 00:57:46;;;;;;;17.05;9.80;;;;;;;10.38;56.39;102501.78;5072520;28;20047;-45
2024/01/29 01:00:12;;;;;;;17.90;9.98;;;;;;;10.28;57.60;102501.38;5072515;28;20070;-46
2024/01/29 01:02:37;;;;;;;17.40;9.57;;;;;;;10.26;57.73;102508.22;5073592;28;20036;-47
2024/01/29 01:05:03;;;;;;;15.43;9.07;;;;;;;10.29;57.34;102513.56;5075643;28;20177;-48
2024/01/29 01:07:28;;;;;;;18.73;9.98;;;;;;;10.22;57.35;102512.44;5073314;28;20687;-44
2024/01/29 01:09:54;;;;;;;20.02;9.60;;;;;;;10.22;57.76;102517.66;5071537;28;20564;-45
2024/01/29 01:12:19;;;;;;;17.88;10.27;;;;;;;9.90;59.16;102523.19;5072336;28;20043;-49
2024/01/29 01:14:44;;;;;;;19.40;9.98;;;;;;;10.23;58.16;102518.53;5072967;28;20033;-47
2024/01/29 01:17:10;;;;;;;18.60;9.88;;;;;;;9.90;58.97;102524.09;5070270;28;20036;-46
2024/01/29 01:19:35;;;;;;;20.73;9.60;;;;;;;10.22;58.32;102521.97;5072727;28;20032;-45
2024/01/29 01:22:01;;;;;;;17.40;10.05;;;;;;;10.21;58.37;102522.78;5072156;28;20737;-45
2024/01/29 01:24:26;;;;;;;19.67;9.50;;;;;;;10.22;58.32;102515.03;5072656;28;20036;-46
2024/01/29 01:26:52;;;;;;;18.80;10.23;;;;;;;10.10;58.55;102511.91;5071915;28;20039;-46
2024/01/29 01:29:18;;;;;;;18.48;9.60;;;;;;;10.15;58.47;102508.66;5072200;28;20039;-47
2024/01/29 01:31:43;;;;;;;19.83;10.05;;;;;;;10.21;58.05;102510.66;5072353;28;20201;-45
2024/01/29 01:34:09;;;;;;;20.23;9.90;;;;;;;10.10;58.79;102512.78;5071949;28;20597;-45
2024/01/29 01:36:34;;;;;;;19.60;9.82;;;;;;;10.13;58.49;102512.00;5071738;28;20043;-45
2024/01/29 01:38:59;;;;;;;19.30;9.85;;;;;;;10.05;58.35;102506.50;5072015;28;20032;-46
2024/01/29 01:41:24;;;;;;;20.30;10.50;;;;;;;10.01;58.63;102507.19;5072024;28;20032;-46
2024/01/29 01:43:50;;;;;;;18.15;9.45;;;;;;;10.05;59.06;102513.44;5072221;28;20040;-45
2024/01/29 01:46:23;;;;;;;20.98;10.20;;;;;;;10.02;58.58;102518.50;5072260;28;20119;-43
2024/01/29 01:48:53;;;;;;;19.33;10.50;;;;;;;9.99;59.17;102516.69;5072920;28;20074;-45
2024/01/29 01:51:20;;;;;;;20.15;9.90;;;;;;;9.95;58.92;102513.84;5072282;28;20037;-45
2024/01/29 01:53:49;;;;;;;18.10;10.20;;;;;;;9.98;59.09;102517.50;5072678;28;20063;-45
2024/01/29 01:56:16;;;;;;;18.70;10.45;;;;;;;9.96;59.35;102510.44;5072285;28;20119;-46
2024/01/29 01:58:42;;;;;;;17.55;9.73;;;;;;;9.98;59.56;102514.88;5072453;28;20120;-46
2024/01/29 02:01:08;;;;;;;17.13;9.90;;;;;;;9.97;59.38;102513.09;5072083;28;20060;-45
2024/01/29 02:03:33;;;;;;;18.27;10.18;;;;;;;9.84;60.08;102512.50;5072680;28;20032;-48
2024/01/29 02:05:59;;;;;;;17.90;10.68;;;;;;;9.78;60.19;102513.16;5072085;28;20063;-45
2024/01/29 02:08:24;;;;;;;18.27;10.13;;;;;;;9.90;59.80;102502.34;5072229;28;20032;-43
2024/01/29 02:10:52;;;;;;;18.77;10.18;;;;;;;9.82;59.87;102490.75;5074314;28;20039;-48
2024/01/29 02:13:17;;;;;;;18.13;10.02;;;;;;;9.81;59.75;102495.06;5073112;28;20037;-43
2024/01/29 02:15:42;;;;;;;20.80;10.40;;;;;;;9.82;60.13;102503.78;5072511;28;20036;-49
2024/01/29 02:18:08;;;;;;;18.05;10.10;;;;;;;9.87;59.88;102505.75;5071671;28;20407;-47
2024/01/29 02:20:36;;;;;;;19.02;10.13;;;;;;;9.77;60.62;102504.44;5073296;28;20102;-44
2024/01/29 02:23:02;;;;;;;17.83;10.10;;;;;;;9.86;59.91;102503.06;5073664;28;20040;-44
2024/01/29 02:25:27;;;;;;;21.15;10.88;;;;;;;9.80;60.26;102506.31;5074109;28;20039;-45
2024/01/29 02:27:53;;;;;;;20.23;10.95;;;;;;;9.76;60.69;102507.88;5073738;28;20124;-46
2024/01/29 02:30:19;;;;;;;19.55;10.98;;;;;;;9.69;61.23;102511.06;5072550;28;20024;-44
2024/01/29 02:32:44;;;;;;;17.85;10.35;;;;;;;9.71;61.23;102509.38;5072579;28;20037;-44
2024/01/29 02:35:09;;;;;;;19.75;10.95;;;;;;;9.57;61.87;102520.06;5072648;28;20063;-45
2024/01/29 02:37:35;;;;;;;18.08;10.73;;;;;;;9.65;61.79;102510.84;5072040;28;20040;-48
2024/01/29 02:40:00;;;;;;;20.50;11.15;;;;;;;9.69;62.11;102515.38;5071802;28;20530;-45
2024/01/29 02:42:25;;;;;;;20.55;11.25;;;;;;;9.74;61.38;102521.66;5072259;28;20124;-45
2024/01/29 02:44:51;;;;;;;19.88;10.35;;;;;;;9.82;60.82;102522.00;5072028;28;20044;-45
2024/01/29 02:47:16;;;;;;;20.30;10.52;;;;;;;9.82;60.38;102525.47;5071431;28;20251;-47
2024/01/29 02:49:45;;;;;;;19.70;10.60;;;;;;;9.68;61.64;102529.22;5074025;28;20039;-47
2024/01/29 02:52:11;;;;;;;19.40;10.43;;;;;;;9.73;61.47;102527.69;5072472;28;20036;-43
2024/01/29 02:54:36;;;;;;;20.77;10.70;;;;;;;9.71;61.05;102535.44;5071485;28;20094;-44
2024/01/29 02:57:03;;;;;;;21.20;10.23;;;;;;;9.65;61.38;102531.66;5070424;28;20044;-48
2024/01/29 02:59:28;;;;;;;18.08;10.23;;;;;;;9.68;61.05;102535.31;5072330;28;20039;-44
2024/01/29 03:01:54;;;;;;;22.58;10.98;;;;;;;9.60;61.48;102527.97;5075287;28;20041;-46
2024/01/29 03:04:20;;;;;;;19.05;9.93;;;;;;;9.61;60.94;102530.66;5074390;28;20048;-46
2024/01/29 03:06:45;;;;;;;20.98;10.80;;;;;;;9.61;61.52;102541.06;5071369;28;20448;-45
2024/01/29 03:09:10;;;;;;;22.08;11.02;;;;;;;9.57;61.76;102541.78;5070722;28;20043;-45
2024/01/29 03:11:36;;;;;;;17.88;10.60;;;;;;;9.55;61.72;102543.41;5069971;28;20060;-45
2024/01/29 03:14:01;;;;;;;18.73;10.80;;;;;;;9.54;61.69;102546.84;5070009;28;20089;-45
2024/01/29 03:16:26;;;;;;;21.95;10.93;;;;;;;9.55;61.81;102539.91;5068447;28;20035;-46
2024/01/29 03:18:52;;;;;;;18.52;10.57;;;;;;;9.49;62.03;102529.22;5070314;28;20044;-45
2024/01/29 03:21:17;;;;;;;23.67;11.20;;;;;;;9.46;62.60;102529.97;5070152;28;20031;-48
2024/01/29 03:23:42;;;;;;;22.10;11.63;;;;;;;9.51;62.50;102522.38;5071917;28;20040;-43
2024/01/29 03:26:08;;;;;;;22.35;11.55;;;;;;;9.49;62.84;102530.13;5070173;28;20036;-44
2024/01/29 03:28:33;;;;;;;23.25;12.55;;;;;;;8.95;65.30;102567.56;5070336;28;20037;-46
2024/01/29 03:30:58;;;;;;;22.08;11.68;;;;;;;9.42;64.50;102561.91;5069729;28;20047;-43
2024/01/29 03:33:23;;;;;;;22.33;12.27;;;;;;;9.44;64.36;102554.19;5070204;28;20051;-44
2024/01/29 03:35:49;;;;;;;19.25;11.43;;;;;;;9.55;63.30;102548.63;5069965;28;20075;-45
2024/01/29 03:38:14;;;;;;;21.85;12.65;;;;;;;9.28;64.73;102568.19;5069253;28;20032;-44
2024/01/29 03:40:39;;;;;;;22.58;12.65;;;;;;;9.25;64.82;102568.97;5068736;28;20032;-49
2024/01/29 03:43:05;;;;;;;21.30;11.98;;;;;;;9.51;63.07;102551.03;5069799;28;20056;-44
2024/01/29 03:45:30;;;;;;;22.88;12.55;;;;;;;9.43;63.25;102552.38;5070226;28;20106;-45
2024/01/29 03:47:55;;;;;;;26.58;13.70;;;;;;;9.21;65.15;102566.16;5069760;28;20490;-44
2024/01/29 03:50:20;;;;;;;20.75;12.15;;;;;;;9.45;63.92;102559.47;5069766;28;20040;-45
2024/01/29 03:52:47;;;;;;;21.02;12.45;;;;;;;9.44;63.43;102551.56;5069810;28;20043;-47
2024/01/29 03:55:13;;;;;;;21.25;12.07;;;;;;;9.41;63.50;102548.81;5069324;28;20032;-48
2024/01/29 03:57:38;;;;;;;23.05;12.43;;;;;;;9.39;63.77;102540.97;5069260;28;20040;-46
2024/01/29 04:00:07;;;;;;;20.38;11.48;;;;;;;9.45;63.63;102532.53;5069553;28;20498;-47
2024/01/29 04:02:32;;;;;;;22.00;11.45;;;;;;;9.48;63.52;102530.94;5070359;28;20644;-47
2024/01/29 04:04:57;;;;;;;21.23;11.45;;;;;;;9.41;64.00;102533.19;5073952;28;20060;-45
2024/01/29 04:07:22;;;;;;;21.25;11.20;;;;;;;9.49;63.81;102521.41;5073447;28;20071;-46
2024/01/29 04:09:48;;;;;;;20.17;11.32;;;;;;;9.49;64.31;102524.91;5073978;28;20037;-44
2024/01/29 04:12:13;;;;;;;21.55;11.55;;;;;;;9.50;64.66;102529.31;5073384;28;20060;-44
2024/01/29 04:14:38;;;;;;;19.55;10.65;;;;;;;9.57;64.38;102531.38;5074050;28;20363;-45
2024/01/29 04:17:06;;;;;;;18.92;11.18;;;;;;;9.55;64.41;102521.69;5072608;28;20043;-45
2024/01/29 04:19:31;;;;;;;21.27;11.23;;;;;;;9.60;64.67;102523.66;5073840;28;20083;-47
2024/01/29 04:21:57;;;;;;;20.90;10.68;;;;;;;9.58;64.58;102525.31;5073591;28;20072;-49
2024/01/29 04:24:23;;;;;;;20.83;11.07;;;;;;;9.52;65.17;102521.53;5073940;28;20031;-44
2024/01/29 04:26:48;;;;;;;23.60;11.65;;;;;;;9.70;64.58;102525.84;5073244;28;20490;-45
2024/01/29 04:29:14;;;;;;;18.23;10.88;;;;;;;9.64;64.90;102530.78;5073005;28;20033;-46
2024/01/29 04:31:39;;;;;;;23.80;11.27;;;;;;;9.47;65.30;102530.88;5073241;28;20033;-46
2024/01/29 04:34:05;;;;;;;22.70;11.55;;;;;;;9.63;64.42;102525.53;5073233;28;20044;-45
2024/01/29 04:36:31;;;;;;;18.98;11.02;;;;;;;9.62;64.66;102526.34;5073140;28;20032;-45
2024/01/29 04:38:57;;;;;;;19.60;10.73;;;;;;;9.65;64.88;102529.06;5073012;28;20406;-47
2024/01/29 04:41:22;;;;;;;19.10;10.65;;;;;;;9.58;65.02;102522.69;5073294;28;20028;-47
2024/01/29 04:43:48;;;;;;;20.70;10.98;;;;;;;9.46;65.05;102521.28;5073453;28;20048;-46
2024/01/29 04:46:14;;;;;;;18.27;10.13;;;;;;;9.62;64.69;102500.31;5072545;28;20036;-44
2024/01/29 04:48:40;;;;;;;20.45;10.82;;;;;;;9.59;64.19;102505.38;5072692;28;20041;-45
2024/01/29 04:51:09;;;;;;;21.83;10.95;;;;;;;9.59;65.18;102521.00;5072456;28;20107;-45
2024/01/29 04:53:35;;;;;;;23.58;11.00;;;;;;;9.77;64.52;102519.19;5073804;28;20060;-45
2024/01/29 04:56:05;;;;;;;20.25;10.77;;;;;;;9.78;64.20;102513.16;5073156;28;20032;-45
2024/01/29 04:58:30;;;;;;;20.58;11.43;;;;;;;9.72;64.46;102515.50;5073132;28;20486;-45
2024/01/29 05:00:56;;;;;;;21.55;12.52;;;;;;;9.72;64.64;102516.38;5072271;28;20033;-46
2024/01/29 05:03:21;;;;;;;23.73;13.20;;;;;;;9.59;65.40;102534.00;5072915;28;20406;-45
2024/01/29 05:05:47;;;;;;;23.88;13.40;;;;;;;9.72;65.08;102531.13;5071564;28;20523;-45
2024/01/29 05:08:13;;;;;;;23.90;13.60;;;;;;;9.89;64.37;102527.50;5071931;28;20721;-44
2024/01/29 05:10:39;;;;;;;25.02;14.13;;;;;;;9.84;64.17;102522.94;5072846;28;20033;-44
2024/01/29 05:13:04;;;;;;;24.40;14.02;;;;;;;9.90;63.48;102534.50;5072640;28;20051;-44
2024/01/29 05:15:29;;;;;;;28.38;16.02;;;;;;;9.83;63.92;102540.28;5073330;28;20033;-46
2024/01/29 05:17:56;;;;;;;28.48;17.02;;;;;;;9.46;65.36;102550.78;5072756;28;20037;-43
2024/01/29 05:20:21;;;;;;;27.77;16.60;;;;;;;9.62;64.96;102552.38;5072695;28;20033;-45
2024/01/29 05:22:46;;;;;;;29.75;16.55;;;;;;;9.59;64.72;102544.44;5072515;28;20033;-48
2024/01/29 05:25:12;;;;;;;25.58;15.55;;;;;;;9.62;64.61;102542.88;5072594;28;20037;-44
2024/01/29 05:27:37;;;;;;;26.88;16.00;;;;;;;9.46;64.58;102547.31;5072227;28;20105;-45
2024/01/29 05:30:03;;;;;;;24.75;14.88;;;;;;;9.51;64.98;102556.22;5072607;28;20161;-46
2024/01/29 05:32:28;;;;;;;23.23;14.30;;;;;;;9.18;66.45;102571.22;5072373;28;20514;-46
2024/01/29 05:34:53;;;;;;;24.90;14.32;;;;;;;9.49;64.98;102560.47;5072714;28;20039;-44
2024/01/29 05:37:19;;;;;;;25.33;13.57;;;;;;;9.29;65.90;102562.19;5071718;28;20189;-45
2024/01/29 05:39:44;;;;;;;24.15;13.38;;;;;;;9.48;65.32;102559.56;5072489;28;20056;-49
2024/01/29 05:42:09;;;;;;;22.15;12.73;;;;;;;9.42;65.21;102563.63;5071735;28;20029;-45
2024/01/29 05:44:35;;;;;;;19.80;12.35;;;;;;;9.38;66.88;102564.31;5072297;28;20033;-47
2024/01/29 05:47:00;;;;;;;22.50;12.43;;;;;;;9.57;65.22;102566.91;5071683;28;20559;-46
2024/01/29 05:49:25;;;;;;;25.08;12.38;;;;;;;9.52;65.02;102552.78;5072272;28;20486;-46
2024/01/29 05:51:51;;;;;;;22.02;12.43;;;;;;;9.47;65.27;102556.91;5072322;28;20033;-45
2024/01/29 05:54:16;;;;;;;21.50;11.93;;;;;;;9.54;65.34;102559.84;5072252;28;20399;-45
2024/01/29 05:56:42;;;;;;;27.92;12.25;;;;;;;9.53;65.23;102562.38;5072847;28;20494;-43
2024/01/29 05:59:08;;;;;;;23.35;12.32;;;;;;;9.44;65.60;102559.38;5071850;28;20033;-44
2024/01/29 06:01:34;;;;;;;21.20;12.07;;;;;;;9.29;67.01;102562.19;5071755;28;20043;-45
2024/01/29 06:03:59;;;;;;;22.73;12.15;;;;;;;9.41;66.80;102559.22;5072987;28;20041;-45
2024/01/29 06:06:24;;;;;;;21.35;12.15;;;;;;;9.48;66.59;102556.97;5072923;28;20217;-44
2024/01/29 06:08:50;;;;;;;22.15;12.32;;;;;;;9.49;66.13;102557.88;5073084;28;20138;-47
2024/01/29 06:11:15;;;;;;;22.52;12.07;;;;;;;9.54;66.12;102552.03;5071022;28;20085;-44
2024/01/29 06:13:40;;;;;;;27.92;12.30;;;;;;;9.54;66.16;102549.44;5071951;28;20036;-45
2024/01/29 06:16:06;;;;;;;19.98;11.80;;;;;;;9.53;66.13;102555.47;5071193;28;20513;-45
2024/01/29 06:18:31;;;;;;;20.98;12.43;;;;;;;9.43;66.58;102558.50;5071013;28;20039;-47
2024/01/29 06:20:57;;;;;;;19.98;11.45;;;;;;;9.53;66.06;102550.25;5070601;28;20032;-46
2024/01/29 06:23:22;;;;;;;22.17;12.55;;;;;;;9.47;66.27;102554.28;5071588;28;20119;-45
2024/01/29 06:25:47;;;;;;;24.60;12.25;;;;;;;9.54;66.17;102559.84;5070370;28;20029;-45
2024/01/29 06:28:13;;;;;;;25.38;12.35;;;;;;;9.52;66.46;102558.88;5070339;28;20487;-45
2024/01/29 06:30:39;;;;;;;22.75;12.20;;;;;;;9.47;66.04;102557.78;5071342;28;20406;-45
2024/01/29 06:33:05;;;;;;;22.88;11.50;;;;;;;9.53;66.02;102562.38;5070676;28;20040;-44
2024/01/29 06:35:30;;;;;;;20.92;12.27;;;;;;;9.53;66.03;102564.97;5071012;28;20407;-45
2024/01/29 06:37:55;;;;;;;22.23;12.75;;;;;;;9.46;66.14;102558.59;5070562;28;20033;-45
2024/01/29 06:40:26;;;;;;;23.30;12.45;;;;;;;9.46;65.77;102555.13;5070535;28;20040;-46
2024/01/29 06:42:53;;;;;;;21.92;12.68;;;;;;;9.40;66.01;102553.13;5071012;28;20117;-46
2024/01/29 06:45:18;;;;;;;27.63;13.60;;;;;;;9.33;66.87;102577.13;5070739;28;20490;-46
2024/01/29 06:47:43;;;;;;;22.35;12.55;;;;;;;9.48;66.34;102577.81;5069393;28;20056;-45
2024/01/29 06:50:09;;;;;;;25.48;12.73;;;;;;;9.53;66.04;102581.50;5070573;28;20032;-44
2024/01/29 06:52:34;;;;;;;24.05;12.88;;;;;;;9.45;66.63;102595.00;5069724;28;20028;-45
2024/01/29 06:55:00;;;;;;;22.95;12.88;;;;;;;9.51;66.71;102588.38;5070880;28;20036;-44
2024/01/29 06:57:25;;;;;;;24.10;13.18;;;;;;;9.51;66.26;102590.09;5071758;28;20116;-44
2024/01/29 06:59:51;;;;;;;22.70;12.63;;;;;;;9.52;66.42;102577.09;5073890;28;20607;-44
2024/01/29 07:02:17;;;;;;;24.40;13.48;;;;;;;9.52;66.71;102589.22;5072815;28;20471;-44
2024/01/29 07:04:43;;;;;;;25.05;13.27;;;;;;;9.44;66.66;102580.22;5072748;28;20028;-45
2024/01/29 07:07:08;;;;;;;24.88;13.43;;;;;;;9.42;67.02;102587.94;5069926;28;20032;-45
2024/01/29 07:09:33;;;;;;;25.38;13.38;;;;;;;9.49;66.89;102592.59;5071507;28;20028;-45
2024/01/29 07:12:00;;;;;;;28.52;13.63;;;;;;;9.41;67.43;102600.88;5069855;28;20076;-45
2024/01/29 07:14:25;;;;;;;25.92;13.25;;;;;;;9.55;67.36;102586.78;5071039;28;20090;-44
2024/01/29 07:16:51;;;;;;;27.30;13.65;;;;;;;9.43;67.23;102591.44;5070015;28;20040;-44
2024/01/29 07:19:22;;;;;;;25.65;13.75;;;;;;;9.52;67.44;102590.13;5068709;28;20028;-51
2024/01/29 07:21:49;;;;;;;25.55;13.02;;;;;;;9.52;67.74;102595.34;5070524;28;20086;-45
2024/01/29 07:24:14;;;;;;;25.38;12.80;;;;;;;9.59;67.42;102597.41;5070242;28;20032;-47
2024/01/29 07:26:39;;;;;;;22.90;12.50;;;;;;;9.71;67.27;102599.66;5069822;28;20036;-44
2024/01/29 07:29:05;;;;;;;24.95;13.13;;;;;;;9.71;67.20;102597.03;5069726;28;20040;-48
2024/01/29 07:31:30;;;;;;;22.85;12.70;;;;;;;9.76;67.03;102605.94;5069601;28;20028;-46
2024/01/29 07:33:55;;;;;;;23.55;13.07;;;;;;;9.76;67.09;102605.94;5070059;28;20495;-45
2024/01/29 07:36:22;;;;;;;24.42;13.88;;;;;;;9.52;68.85;102613.56;5069713;28;20437;-47
2024/01/29 07:38:48;;;;;;;24.35;13.10;;;;;;;9.57;68.41;102617.28;5069675;28;20499;-45
2024/01/29 07:41:13;;;;;;;25.85;13.13;;;;;;;9.80;68.27;102612.19;5069314;28;20035;-47
2024/01/29 07:43:39;;;;;;;25.23;13.27;;;;;;;9.87;67.58;102620.34;5070375;28;20054;-44
2024/01/29 07:46:04;;;;;;;24.75;13.40;;;;;;;9.86;67.38;102618.56;5069569;28;20089;-45
2024/01/29 07:48:29;;;;;;;26.60;13.88;;;;;;;9.80;67.43;102614.81;5068418;28;20033;-50
2024/01/29 07:50:55;;;;;;;26.48;14.32;;;;;;;9.73;67.99;102618.84;5070026;28;20500;-46
2024/01/29 07:53:20;;;;;;;30.50;14.93;;;;;;;9.86;67.03;102620.28;5070579;28;20088;-46
2024/01/29 07:55:45;;;;;;;29.02;16.25;;;;;;;9.87;67.30;102629.88;5072191;28;20028;-46
2024/01/29 07:58:11;;;;;;;28.08;15.27;;;;;;;9.95;67.06;102629.38;5072380;28;20037;-43
2024/01/29 08:00:36;;;;;;;26.08;15.50;;;;;;;9.94;66.83;102624.97;5073897;28;20021;-45
2024/01/29 08:03:01;;;;;;;29.92;17.30;;;;;;;9.87;67.04;102627.28;5074359;28;20478;-48
2024/01/29 08:05:27;;;;;;;31.35;17.42;;;;;;;9.95;66.49;102629.38;5074413;28;20485;-47
2024/01/29 08:07:52;;;;;;;35.80;19.40;;;;;;;9.84;66.64;102634.94;5077022;28;20383;-52
2024/01/29 08:10:17;;;;;;;33.28;19.75;;;;;;;9.90;66.59;102630.00;5078594;28;20095;-43
2024/01/29 08:12:43;;;;;;;34.67;20.50;;;;;;;9.89;66.64;102634.31;5075984;28;20133;-48
2024/01/29 08:15:08;;;;;;;32.95;19.60;;;;;;;9.80;66.55;102628.72;5072387;28;20039;-48
2024/01/29 08:17:33;;;;;;;34.92;19.60;;;;;;;9.76;67.29;102627.69;5070120;28;20035;-45
2024/01/29 08:19:59;;;;;;;35.28;19.63;;;;;;;9.88;66.41;102626.47;5069834;28;20037;-49
2024/01/29 08:22:24;;;;;;;33.25;19.15;;;;;;;9.87;66.31;102628.19;5070742;28;20036;-45
2024/01/29 08:24:49;;;;;;;31.98;19.63;;;;;;;9.73;66.78;102632.75;5069979;28;20086;-44
2024/01/29 08:27:15;;;;;;;34.08;18.92;;;;;;;9.92;66.71;102626.66;5069433;28;20153;-45
2024/01/29 08:29:40;;;;;;;34.13;18.77;;;;;;;10.00;66.31;102632.22;5070736;28;20036;-44
2024/01/29 08:32:05;;;;;;;29.75;17.52;;;;;;;9.95;66.99;102637.19;5069169;28;20041;-50
2024/01/29 08:34:31;;;;;;;28.65;17.42;;;;;;;10.04;66.58;102635.00;5070417;28;20079;-45
2024/01/29 08:36:56;;;;;;;29.02;16.60;;;;;;;10.18;66.08;102637.34;5069715;28;20539;-48
2024/01/29 08:39:22;;;;;;;29.80;16.48;;;;;;;10.26;65.98;102635.94;5070540;28;20556;-48
2024/01/29 08:41:47;;;;;;;30.40;16.33;;;;;;;10.00;66.68;102637.41;5069477;28;20064;-49
2024/01/29 08:44:12;;;;;;;27.85;16.50;;;;;;;10.14;66.44;102634.56;5069326;28;20032;-45
2024/01/29 08:46:38;;;;;;;26.20;16.15;;;;;;;10.24;66.10;102632.41;5069326;28;20083;-47
2024/01/29 08:49:03;;;;;;;29.13;16.60;;;;;;;10.31;65.98;102624.88;5070450;28;20139;-46
2024/01/29 08:51:29;;;;;;;30.15;16.05;;;;;;;10.49;65.75;102624.78;5073459;28;20067;-48
2024/01/29 08:53:56;;;;;;;28.55;16.58;;;;;;;10.39;65.92;102627.81;5072440;28;20044;-44
2024/01/29 08:56:21;;;;;;;28.80;16.77;;;;;;;10.44;65.66;102624.56;5073214;28;20028;-45
2024/01/29 08:58:46;;;;;;;32.08;17.60;;;;;;;10.39;66.09;102615.69;5073375;28;20406;-46
2024/01/29 09:01:12;;;;;;;33.17;17.83;;;;;;;10.51;65.92;102617.91;5073156;28;20090;-46
2024/01/29 09:03:37;;;;;;;30.15;17.40;;;;;;;10.56;65.69;102614.66;5074240;28;20040;-44
2024/01/29 09:06:03;;;;;;;29.95;17.48;;;;;;;10.70;65.37;102623.06;5074251;28;20040;-46
2024/01/29 09:08:28;;;;;;;29.85;17.27;;;;;;;10.75;65.40;102625.84;5075552;28;20089;-45
2024/01/29 09:10:53;;;;;;;28.77;16.67;;;;;;;10.71;64.90;102632.66;5075148;28;20040;-44
2024/01/29 09:13:19;;;;;;;28.60;16.35;;;;;;;10.99;64.69;102632.03;5074502;28;20100;-46
2024/01/29 09:15:44;;;;;;;30.50;16.25;;;;;;;10.91;64.80;102633.47;5074459;28;20487;-44
2024/01/29 09:18:09;;;;;;;27.83;14.10;;;;;;;10.79;64.57;102638.19;5075881;28;20100;-46
2024/01/29 09:20:35;;;;;;;26.10;14.50;;;;;;;10.88;64.80;102639.44;5076410;28;20039;-45
2024/01/29 09:23:00;;;;;;;27.77;14.77;;;;;;;11.11;64.52;102639.44;5073509;28;20105;-44
2024/01/29 09:25:25;;;;;;;23.10;13.93;;;;;;;10.97;64.38;102641.53;5073094;28;20029;-49
2024/01/29 09:27:51;;;;;;;24.55;13.05;;;;;;;11.32;63.57;102643.81;5072136;28;20035;-45
2024/01/29 09:30:16;;;;;;;27.98;14.30;;;;;;;11.24;63.46;102654.78;5071971;28;20547;-44
2024/01/29 09:32:41;;;;;;;24.48;13.88;;;;;;;11.31;63.48;102655.06;5072069;28;20037;-45
2024/01/29 09:35:08;;;;;;;26.85;14.27;;;;;;;11.33;63.75;102658.66;5072176;28;20048;-45
2024/01/29 09:37:34;;;;;;;26.85;13.95;;;;;;;11.37;63.70;102652.69;5071666;28;20032;-49
2024/01/29 09:39:59;;;;;;;25.23;14.40;;;;;;;11.47;63.61;102651.31;5071813;28;20128;-46
2024/01/29 09:42:28;;;;;;;26.45;14.13;;;;;;;11.36;64.26;102658.75;5072211;28;20031;-45
2024/01/29 09:44:54;;;;;;;25.42;14.88;;;;;;;11.51;64.06;102652.34;5072758;28;20052;-45
2024/01/29 09:47:20;;;;;;;28.08;15.20;;;;;;;11.44;64.81;102652.94;5071457;28;20448;-47
2024/01/29 09:49:46;;;;;;;27.17;15.70;;;;;;;11.28;65.05;102652.31;5072501;28;20054;-47
2024/01/29 09:52:12;;;;;;;30.63;16.02;;;;;;;11.24;65.75;102660.88;5071681;28;20037;-50
2024/01/29 09:54:40;;;;;;;26.70;15.98;;;;;;;11.33;65.60;102661.25;5072971;28;20043;-46
2024/01/29 09:57:09;;;;;;;29.55;16.35;;;;;;;11.37;65.41;102670.09;5069855;28;20040;-49
2024/01/29 09:59:35;;;;;;;28.48;16.35;;;;;;;11.50;65.10;102672.34;5071979;28;20052;-48
2024/01/29 10:02:02;;;;;;;25.90;15.60;;;;;;;11.56;64.90;102669.06;5070394;28;20098;-47
2024/01/29 10:04:27;;;;;;;30.25;16.45;;;;;;;11.72;64.87;102677.53;5072431;28;20094;-50
2024/01/29 10:06:52;;;;;;;33.28;15.68;;;;;;;11.63;65.06;102671.97;5070463;28;20029;-47
2024/01/29 10:09:18;;;;;;;28.73;15.60;;;;;;;11.59;64.31;102672.66;5071673;28;20495;-47
2024/01/29 10:11:43;;;;;;;25.50;15.43;;;;;;;11.76;64.42;102681.19;5070300;28;20052;-47
2024/01/29 10:14:09;;;;;;;27.40;15.32;;;;;;;11.78;64.32;102679.50;5071544;28;20534;-46
2024/01/29 10:16:34;;;;;;;28.50;15.48;;;;;;;11.78;64.13;102689.97;5071241;28;20123;-43
2024/01/29 10:19:01;;;;;;;25.05;15.52;;;;;;;11.98;63.85;102681.16;5071277;28;20054;-50
2024/01/29 10:21:26;;;;;;;27.10;15.65;;;;;;;12.06;63.76;102687.56;5069558;28;20049;-49
2024/01/29 10:23:56;;;;;;;25.88;15.40;;;;;;;11.99;63.74;102692.50;5071705;28;20110;-48
2024/01/29 10:26:22;;;;;;;26.38;16.38;;;;;;;12.01;63.80;102696.94;5052431;28;20489;-45
2024/01/29 10:29:01;;;;;;;29.23;16.05;;;;;;;12.14;63.48;102690.41;5066923;28;20028;-46
2024/01/29 10:31:26;;;;;;;29.42;16.05;;;;;;;12.26;63.31;102692.59;5063497;28;20033;-47
2024/01/29 10:33:52;;;;;;;29.58;15.35;;;;;;;12.32;62.98;102691.06;5071451;28;20090;-45
2024/01/29 10:36:17;;;;;;;27.77;15.80;;;;;;;12.36;63.06;102690.34;5070787;28;20563;-46
2024/01/29 10:38:46;;;;;;;28.67;15.77;;;;;;;12.53;63.02;102689.22;5071041;28;20043;-47
2024/01/29 10:41:16;;;;;;;26.45;15.07;;;;;;;12.72;62.44;102693.34;5071022;28;20033;-46
2024/01/29 10:43:46;;;;;;;25.02;14.52;;;;;;;12.35;62.55;102698.13;5071452;28;20028;-45
2024/01/29 10:46:12;;;;;;;27.25;15.32;;;;;;;12.58;62.47;102700.72;5072030;28;20037;-44
2024/01/29 10:48:40;;;;;;;24.58;14.90;;;;;;;12.69;63.04;102693.22;5071134;28;20039;-47
2024/01/29 10:51:06;;;;;;;29.45;16.05;;;;;;;12.74;62.74;102696.91;5071714;28;20032;-48
2024/01/29 10:53:32;;;;;;;27.15;15.73;;;;;;;12.67;62.34;102692.28;5073458;28;20036;-50
2024/01/29 10:55:59;;;;;;;29.50;16.08;;;;;;;12.79;61.68;102691.81;5071233;28;20040;-45
2024/01/29 10:58:24;;;;;;;29.35;15.98;;;;;;;12.93;61.61;102693.13;5072275;28;20085;-47
2024/01/29 11:00:51;;;;;;;27.27;15.20;;;;;;;12.97;61.95;102701.16;5071594;28;20123;-45
2024/01/29 11:03:19;;;;;;;28.05;15.90;;;;;;;13.15;61.85;102685.19;5068741;28;20083;-49
2024/01/29 11:06:26;;;;;;;28.33;15.60;;;;;;;12.97;61.23;102692.41;5070463;28;20033;-47
2024/01/29 11:08:59;;;;;;;32.50;16.23;;;;;;;13.13;61.29;102685.97;5070314;28;20036;-46